createdAt,value
2023-05-23T00:01:26.079Z,8.82
2023-05-23T00:03:22.694Z,8.82
2023-05-23T00:05:23.092Z,8.82
2023-05-23T00:07:22.736Z,6.69
2023-05-23T00:09:22.714Z,6.69
2023-05-23T00:11:22.595Z,6.69
2023-05-23T00:13:21.963Z,8.11
2023-05-23T00:15:22.808Z,8.11
2023-05-23T00:17:22.674Z,8.11
2023-05-23T00:19:23.087Z,9.28
2023-05-23T00:21:22.516Z,9.28
2023-05-23T00:23:21.879Z,9.28
2023-05-23T00:25:22.371Z,9.28
2023-05-23T00:27:22.026Z,9.28
2023-05-23T00:29:22.547Z,9.28
2023-05-23T00:31:22.513Z,9.28
2023-05-23T00:33:22.960Z,9.28
2023-05-23T00:35:22.228Z,9.28
2023-05-23T00:37:22.808Z,9.16
2023-05-23T00:39:22.461Z,9.16
2023-05-23T00:41:22.027Z,9.16
2023-05-23T00:43:22.478Z,8.02
2023-05-23T00:45:22.230Z,8.02
2023-05-23T00:47:23.068Z,8.02
2023-05-23T00:49:22.526Z,9.28
2023-05-23T00:51:22.031Z,9.28
2023-05-23T00:53:22.711Z,9.28
2023-05-23T00:55:22.389Z,9.52
2023-05-23T00:57:22.656Z,9.52
2023-05-23T00:59:22.218Z,9.52
2023-05-23T01:01:26.634Z,10.79
2023-05-23T01:03:23.602Z,10.79
2023-05-23T01:05:22.044Z,10.79
2023-05-23T01:07:22.474Z,10.64
2023-05-23T01:09:22.001Z,10.64
2023-05-23T01:11:22.823Z,10.64
2023-05-23T01:13:22.013Z,11.29
2023-05-23T01:15:22.755Z,11.29
2023-05-23T01:17:24.053Z,11.29
2023-05-23T01:19:23.171Z,13.29
2023-05-23T01:21:22.823Z,13.29
2023-05-23T01:23:21.988Z,13.29
2023-05-23T01:25:22.694Z,12.42
2023-05-23T01:27:21.960Z,12.42
2023-05-23T01:29:22.436Z,12.42
2023-05-23T01:31:22.368Z,15.14
2023-05-23T01:33:23.575Z,15.14
2023-05-23T01:35:22.231Z,15.14
2023-05-23T01:37:21.721Z,13.53
2023-05-23T01:39:22.374Z,13.53
2023-05-23T01:41:22.152Z,13.53
2023-05-23T01:43:22.752Z,14.29
2023-05-23T01:45:22.035Z,14.29
2023-05-23T01:47:23.063Z,14.29
2023-05-23T01:49:22.540Z,13.53
2023-05-23T01:51:22.122Z,13.53
2023-05-23T01:53:22.457Z,13.53
2023-05-23T01:55:22.354Z,14.03
2023-05-23T01:57:22.523Z,14.03
2023-05-23T01:59:22.242Z,14.03
2023-05-23T02:01:26.070Z,16.09
2023-05-23T02:03:23.328Z,16.09
2023-05-23T02:05:22.052Z,16.09
2023-05-23T02:07:22.539Z,13.06
2023-05-23T02:09:22.297Z,13.06
2023-05-23T02:11:22.891Z,13.06
2023-05-23T02:13:22.152Z,14.57
2023-05-23T02:15:22.519Z,14.57
2023-05-23T02:17:22.338Z,14.57
2023-05-23T02:19:22.764Z,13.53
2023-05-23T02:21:23.121Z,13.53
2023-05-23T02:23:22.514Z,13.53
2023-05-23T02:25:21.997Z,14.29
2023-05-23T02:27:22.323Z,14.29
2023-05-23T02:29:22.660Z,14.29
2023-05-23T02:31:22.714Z,19.26
2023-05-23T02:33:23.084Z,19.26
2023-05-23T02:35:22.148Z,19.26
2023-05-23T02:37:21.853Z,18.8
2023-05-23T02:39:22.684Z,18.8
2023-05-23T02:41:22.102Z,18.8
2023-05-23T02:43:22.422Z,19.74
2023-05-23T02:45:21.866Z,19.74
2023-05-23T02:47:22.891Z,19.74
2023-05-23T02:49:22.772Z,16.09
2023-05-23T02:51:22.615Z,16.09
2023-05-23T02:53:22.112Z,16.09
2023-05-23T02:55:22.516Z,14.85
2023-05-23T02:57:21.866Z,14.85
2023-05-23T02:59:22.427Z,14.85
2023-05-23T03:01:29.457Z,16.78
2023-05-23T03:03:23.317Z,16.78
2023-05-23T03:05:22.364Z,16.78
2023-05-23T03:07:39.503Z,16.09
2023-05-23T03:09:22.171Z,16.09
2023-05-23T03:11:22.841Z,16.09
2023-05-23T03:13:22.465Z,17.94
2023-05-23T03:15:22.780Z,17.94
2023-05-23T03:17:22.935Z,17.94
2023-05-23T03:19:22.462Z,17.94
2023-05-23T03:21:22.848Z,17.94
2023-05-23T03:23:22.401Z,17.94
2023-05-23T03:25:22.734Z,21.93
2023-05-23T03:27:22.282Z,21.93
2023-05-23T03:29:22.970Z,21.93
2023-05-23T03:31:22.620Z,23.2
2023-05-23T03:33:22.484Z,23.2
2023-05-23T03:35:22.841Z,23.2
2023-05-23T03:37:22.274Z,18.36
2023-05-23T03:39:22.802Z,18.36
2023-05-23T03:41:22.916Z,18.36
2023-05-23T03:43:22.438Z,18.36
2023-05-23T03:45:22.780Z,18.36
2023-05-23T03:47:22.797Z,18.36
2023-05-23T03:49:22.275Z,20.25
2023-05-23T03:51:22.931Z,20.25
2023-05-23T03:53:22.280Z,20.25
2023-05-23T03:55:22.019Z,19.26
2023-05-23T03:57:22.476Z,19.26
2023-05-23T03:59:23.049Z,19.26
2023-05-23T04:01:25.659Z,20.25
2023-05-23T04:03:23.512Z,20.25
2023-05-23T04:05:22.708Z,20.25
2023-05-23T04:07:23.625Z,20.25
2023-05-23T04:09:22.486Z,20.25
2023-05-23T04:11:23.184Z,20.25
2023-05-23T04:13:22.754Z,21.34
2023-05-23T04:15:22.042Z,21.34
2023-05-23T04:17:23.158Z,21.34
2023-05-23T04:19:22.517Z,18.36
2023-05-23T04:21:23.114Z,18.36
2023-05-23T04:23:22.632Z,18.36
2023-05-23T04:25:21.940Z,17.94
2023-05-23T04:27:22.353Z,17.94
2023-05-23T04:29:22.204Z,17.94
2023-05-23T04:31:22.943Z,16.43
2023-05-23T04:33:22.530Z,16.43
2023-05-23T04:35:25.814Z,16.43
2023-05-23T04:37:22.417Z,17.94
2023-05-23T04:39:22.030Z,17.94
2023-05-23T04:41:24.125Z,17.94
2023-05-23T04:43:24.068Z,18.36
2023-05-23T04:45:22.673Z,18.36
2023-05-23T04:47:22.737Z,18.36
2023-05-23T04:49:22.961Z,18.36
2023-05-23T04:51:22.787Z,18.36
2023-05-23T04:53:21.991Z,18.36
2023-05-23T04:55:22.824Z,16.43
2023-05-23T04:57:22.360Z,16.43
2023-05-23T04:59:22.822Z,16.43
2023-05-23T05:01:26.566Z,18.8
2023-05-23T05:03:22.242Z,18.8
2023-05-23T05:05:23.229Z,18.8
2023-05-23T05:07:22.327Z,19.26
2023-05-23T05:09:22.677Z,19.26
2023-05-23T05:11:22.474Z,19.26
2023-05-23T05:13:22.814Z,18.8
2023-05-23T05:15:22.454Z,18.8
2023-05-23T05:17:23.466Z,18.8
2023-05-23T05:19:22.700Z,17.54
2023-05-23T05:21:22.169Z,17.54
2023-05-23T05:23:22.586Z,17.54
2023-05-23T05:25:22.488Z,18.8
2023-05-23T05:27:22.936Z,18.8
2023-05-23T05:29:22.558Z,18.8
2023-05-23T05:31:22.432Z,15.14
2023-05-23T05:33:22.771Z,15.14
2023-05-23T05:35:24.157Z,15.14
2023-05-23T05:37:22.852Z,14.29
2023-05-23T05:39:21.983Z,14.29
2023-05-23T05:41:22.819Z,14.29
2023-05-23T05:43:22.232Z,14.57
2023-05-23T05:45:22.797Z,14.57
2023-05-23T05:47:22.926Z,14.57
2023-05-23T05:49:24.106Z,14.03
2023-05-23T05:51:22.579Z,14.03
2023-05-23T05:53:21.906Z,14.03
2023-05-23T05:55:22.574Z,15.14
2023-05-23T05:57:21.988Z,15.14
2023-05-23T05:59:22.474Z,15.14
2023-05-23T06:01:26.160Z,15.14
2023-05-23T06:03:23.600Z,15.14
2023-05-23T06:05:22.846Z,15.14
2023-05-23T06:07:22.120Z,14.29
2023-05-23T06:09:22.412Z,14.29
2023-05-23T06:11:22.200Z,14.29
2023-05-23T06:13:22.688Z,14.29
2023-05-23T06:15:24.418Z,14.29
2023-05-23T06:17:23.148Z,14.29
2023-05-23T06:19:22.584Z,13.78
2023-05-23T06:21:23.248Z,13.78
2023-05-23T06:23:22.479Z,13.78
2023-05-23T06:25:21.976Z,13.78
2023-05-23T06:27:22.569Z,13.78
2023-05-23T06:29:22.073Z,13.78
2023-05-23T06:31:23.847Z,13.53
2023-05-23T06:33:23.046Z,13.53
2023-05-23T06:35:22.914Z,13.53
2023-05-23T06:37:22.435Z,14.57
2023-05-23T06:39:21.852Z,14.57
2023-05-23T06:41:22.776Z,14.57
2023-05-23T06:43:22.579Z,15.76
2023-05-23T06:45:22.015Z,15.76
2023-05-23T06:47:26.316Z,15.76
2023-05-23T06:49:37.959Z,15.44
2023-05-23T06:51:23.132Z,15.44
2023-05-23T06:53:22.371Z,15.44
2023-05-23T06:55:22.584Z,14.03
2023-05-23T06:57:22.438Z,14.03
2023-05-23T06:59:22.173Z,14.03
2023-05-23T07:01:26.769Z,13.29
2023-05-23T07:03:22.725Z,13.29
2023-05-23T07:05:22.131Z,13.29
2023-05-23T07:07:22.618Z,17.15
2023-05-23T07:09:22.191Z,17.15
2023-05-23T07:11:23.002Z,17.15
2023-05-23T07:13:22.220Z,12.02
2023-05-23T07:15:22.731Z,12.02
2023-05-23T07:17:22.994Z,12.02
2023-05-23T07:19:25.188Z,12.42
2023-05-23T07:21:22.714Z,12.42
2023-05-23T07:23:22.016Z,12.42
2023-05-23T07:25:22.922Z,12.84
2023-05-23T07:27:23.781Z,12.84
2023-05-23T07:29:22.626Z,12.84
2023-05-23T07:31:22.828Z,11.64
2023-05-23T07:33:22.494Z,11.64
2023-05-23T07:35:22.869Z,11.64
2023-05-23T07:37:22.750Z,11.12
2023-05-23T07:39:22.696Z,11.12
2023-05-23T07:41:37.466Z,11.12
2023-05-23T07:43:22.527Z,11.12
2023-05-23T07:45:22.859Z,11.12
2023-05-23T07:47:22.369Z,11.12
2023-05-23T07:49:22.695Z,9.52
2023-05-23T07:51:22.377Z,9.52
2023-05-23T07:53:22.702Z,9.52
2023-05-23T07:55:25.493Z,10.96
2023-05-23T07:57:22.817Z,10.96
2023-05-23T07:59:22.469Z,10.96
2023-05-23T08:01:27.958Z,9.04
2023-05-23T08:03:23.551Z,9.04
2023-05-23T08:05:22.651Z,9.04
2023-05-23T08:07:42.383Z,9.4
2023-05-23T08:09:22.644Z,9.4
2023-05-23T08:11:22.607Z,9.4
2023-05-23T08:13:22.371Z,9.4
2023-05-23T08:15:38.832Z,9.4
2023-05-23T08:17:23.412Z,9.4
2023-05-23T08:19:23.686Z,7.84
2023-05-23T08:21:22.535Z,7.84
2023-05-23T08:23:22.038Z,7.84
2023-05-23T08:25:24.046Z,7.19
2023-05-23T08:27:22.024Z,7.19
2023-05-23T08:29:22.717Z,7.19
2023-05-23T08:31:22.218Z,7.75
2023-05-23T08:33:23.497Z,7.75
2023-05-23T08:35:24.067Z,7.75
2023-05-23T08:37:23.129Z,7.11
2023-05-23T08:39:25.420Z,7.11
2023-05-23T08:41:22.381Z,7.11
2023-05-23T08:43:23.073Z,7.5
2023-05-23T08:45:25.442Z,7.5
2023-05-23T08:47:22.935Z,7.5
2023-05-23T08:49:22.737Z,8.02
2023-05-23T08:51:22.520Z,8.02
2023-05-23T08:53:22.780Z,8.02
2023-05-23T08:55:22.420Z,9.4
2023-05-23T08:57:21.896Z,9.4
2023-05-23T08:59:22.593Z,9.4
2023-05-23T09:01:27.547Z,8.82
2023-05-23T09:03:22.712Z,8.82
2023-05-23T09:05:22.653Z,8.82
2023-05-23T09:07:22.507Z,10.05
2023-05-23T09:09:22.132Z,10.05
2023-05-23T09:11:28.115Z,10.05
2023-05-23T09:13:22.187Z,8.5
2023-05-23T09:15:22.581Z,8.5
2023-05-23T09:17:24.908Z,8.5
2023-05-23T09:19:23.085Z,9.65
2023-05-23T09:21:22.255Z,9.65
2023-05-23T09:23:26.009Z,9.65
2023-05-23T09:25:22.286Z,9.52
2023-05-23T09:27:21.912Z,9.52
2023-05-23T09:29:26.560Z,9.52
2023-05-23T09:31:22.653Z,10.05
2023-05-23T09:33:26.172Z,10.05
2023-05-23T09:35:22.775Z,10.05
2023-05-23T09:37:22.257Z,10.64
2023-05-23T09:39:25.666Z,10.64
2023-05-23T09:41:22.761Z,10.64
2023-05-23T09:43:22.067Z,11.64
2023-05-23T09:45:26.268Z,11.64
2023-05-23T09:47:22.614Z,11.64
2023-05-23T09:49:23.454Z,9.04
2023-05-23T09:51:24.731Z,9.04
2023-05-23T09:53:21.990Z,9.04
2023-05-23T09:55:22.706Z,7.93
2023-05-23T09:57:22.223Z,7.93
2023-05-23T09:59:22.766Z,7.93
2023-05-23T10:01:27.236Z,8.82
2023-05-23T10:03:22.639Z,8.82
2023-05-23T10:05:22.972Z,8.82
2023-05-23T10:07:22.445Z,9.52
2023-05-23T10:09:22.077Z,9.52
2023-05-23T10:11:22.638Z,9.52
2023-05-23T10:13:22.258Z,8.3
2023-05-23T10:15:21.991Z,8.3
2023-05-23T10:17:23.188Z,8.3
2023-05-23T10:19:22.709Z,7.67
2023-05-23T10:21:21.985Z,7.67
2023-05-23T10:23:22.587Z,7.67
2023-05-23T10:25:22.292Z,7.11
2023-05-23T10:27:22.780Z,7.11
2023-05-23T10:29:25.232Z,7.11
2023-05-23T10:31:22.224Z,8.5
2023-05-23T10:33:22.861Z,8.5
2023-05-23T10:35:22.488Z,8.5
2023-05-23T10:37:22.099Z,10.05
2023-05-23T10:39:25.861Z,10.05
2023-05-23T10:41:22.914Z,10.05
2023-05-23T10:43:22.587Z,14.85
2023-05-23T10:45:23.189Z,14.85
2023-05-23T10:47:23.714Z,14.85
2023-05-23T10:49:22.276Z,23.2
2023-05-23T10:51:22.924Z,23.2
2023-05-23T10:53:22.295Z,23.2
2023-05-23T10:55:22.702Z,26.23
2023-05-23T10:57:22.358Z,26.23
2023-05-23T10:59:22.837Z,26.23
2023-05-23T11:01:26.339Z,23.2
2023-05-23T11:03:23.078Z,23.2
2023-05-23T11:05:22.892Z,23.2
2023-05-23T11:07:22.645Z,18.36
2023-05-23T11:09:34.957Z,18.36
2023-05-23T11:11:23.017Z,18.36
2023-05-23T11:13:22.475Z,14.57
2023-05-23T11:15:23.069Z,14.57
2023-05-23T11:17:23.181Z,14.57
2023-05-23T11:19:22.693Z,14.57
2023-05-23T11:21:22.852Z,14.57
2023-05-23T11:23:22.139Z,14.57
2023-05-23T11:25:22.614Z,13.29
2023-05-23T11:27:22.212Z,13.29
2023-05-23T11:29:22.732Z,13.29
2023-05-23T11:31:23.449Z,12.02
2023-05-23T11:33:27.218Z,12.02
2023-05-23T11:35:22.262Z,12.02
2023-05-23T11:37:22.069Z,12.84
2023-05-23T11:39:22.486Z,12.84
2023-05-23T11:41:22.589Z,12.84
2023-05-23T11:43:22.055Z,6.5
2023-05-23T11:45:22.578Z,6.5
2023-05-23T11:47:22.595Z,6.5
2023-05-23T11:49:22.872Z,5.97
2023-05-23T11:51:22.531Z,5.97
2023-05-23T11:53:22.158Z,5.97
2023-05-23T11:55:26.999Z,8.21
2023-05-23T11:57:22.028Z,8.21
2023-05-23T11:59:22.749Z,8.21
2023-05-23T12:01:30.033Z,14.03
2023-05-23T12:03:23.197Z,14.03
2023-05-23T12:05:23.354Z,14.03
2023-05-23T12:07:23.516Z,11.12
2023-05-23T12:09:22.829Z,11.12
2023-05-23T12:11:22.629Z,11.12
2023-05-23T12:13:22.000Z,7.67
2023-05-23T12:15:23.918Z,7.67
2023-05-23T12:17:23.669Z,7.67
2023-05-23T12:19:23.322Z,6.37
2023-05-23T12:21:23.372Z,6.37
2023-05-23T12:23:22.393Z,6.37
2023-05-23T12:25:22.619Z,5.91
2023-05-23T12:27:22.297Z,5.91
2023-05-23T12:29:21.936Z,5.91
2023-05-23T12:31:23.109Z,8.3
2023-05-23T12:33:22.582Z,8.3
2023-05-23T12:35:22.148Z,8.3
2023-05-23T12:37:43.112Z,10.05
2023-05-23T12:39:22.354Z,10.05
2023-05-23T12:41:23.242Z,10.05
2023-05-23T12:43:22.560Z,9.4
2023-05-23T12:45:22.275Z,9.4
2023-05-23T12:47:23.804Z,9.4
2023-05-23T12:49:23.123Z,10.49
2023-05-23T12:51:22.967Z,10.49
2023-05-23T12:53:24.322Z,10.49
2023-05-23T12:55:22.164Z,12.42
2023-05-23T12:57:22.623Z,12.42
2023-05-23T12:59:22.205Z,12.42
2023-05-23T13:01:26.945Z,13.78
2023-05-23T13:03:22.721Z,13.78
2023-05-23T13:05:22.238Z,13.78
2023-05-23T13:07:22.746Z,10.64
2023-05-23T13:09:22.152Z,10.64
2023-05-23T13:11:23.046Z,10.64
2023-05-23T13:13:22.304Z,11.12
2023-05-23T13:15:23.012Z,11.12
2023-05-23T13:17:22.971Z,11.12
2023-05-23T13:19:23.113Z,11.64
2023-05-23T13:21:22.571Z,11.64
2023-05-23T13:23:21.743Z,11.64
2023-05-23T13:25:22.587Z,9.4
2023-05-23T13:27:21.984Z,9.4
2023-05-23T13:29:22.738Z,9.4
2023-05-23T13:31:23.225Z,16.78
2023-05-23T13:33:26.138Z,16.78
2023-05-23T13:35:22.347Z,16.78
2023-05-23T13:37:22.049Z,17.54
2023-05-23T13:39:24.451Z,17.54
2023-05-23T13:41:24.926Z,17.54
2023-05-23T13:43:22.827Z,12.02
2023-05-23T13:45:22.485Z,12.02
2023-05-23T13:47:24.789Z,12.02
2023-05-23T13:49:22.663Z,15.76
2023-05-23T13:51:23.189Z,15.76
2023-05-23T13:53:24.162Z,15.76
2023-05-23T13:55:22.382Z,14.85
2023-05-23T13:57:22.520Z,14.85
2023-05-23T13:59:21.971Z,14.85
2023-05-23T14:01:26.164Z,18.8
2023-05-23T14:03:22.776Z,18.8
2023-05-23T14:05:22.104Z,18.8
2023-05-23T14:07:22.418Z,14.85
2023-05-23T14:09:23.422Z,14.85
2023-05-23T14:11:22.828Z,14.85
2023-05-23T14:13:22.092Z,14.85
2023-05-23T14:15:22.645Z,14.85
2023-05-23T14:17:22.782Z,14.85
2023-05-23T14:19:23.458Z,16.43
2023-05-23T14:21:22.722Z,16.43
2023-05-23T14:23:22.302Z,16.43
2023-05-23T14:25:22.697Z,14.57
2023-05-23T14:27:23.105Z,14.57
2023-05-23T14:29:21.760Z,14.57
2023-05-23T14:31:23.021Z,17.54
2023-05-23T14:33:23.187Z,17.54
2023-05-23T14:35:22.834Z,17.54
2023-05-23T14:37:22.336Z,15.76
2023-05-23T14:39:22.397Z,15.76
2023-05-23T14:41:22.894Z,15.76
2023-05-23T14:43:22.388Z,17.54
2023-05-23T14:45:22.238Z,17.54
2023-05-23T14:47:22.982Z,17.54
2023-05-23T14:49:22.567Z,18.8
2023-05-23T14:51:47.406Z,18.8
2023-05-23T14:53:22.116Z,18.8
2023-05-23T14:55:22.566Z,20.78
2023-05-23T14:57:24.446Z,20.78
2023-05-23T14:59:22.273Z,20.78
2023-05-23T15:01:26.053Z,22.55
2023-05-23T15:03:22.811Z,22.55
2023-05-23T15:05:22.949Z,22.55
2023-05-23T15:07:22.711Z,21.93
2023-05-23T15:09:22.396Z,21.93
2023-05-23T15:11:22.777Z,21.93
2023-05-23T15:13:22.651Z,17.94
2023-05-23T15:15:22.262Z,17.94
2023-05-23T15:17:24.272Z,17.94
2023-05-23T15:19:39.013Z,20.78
2023-05-23T15:21:25.109Z,20.78
2023-05-23T15:23:45.026Z,20.78
2023-05-23T15:25:43.308Z,20.25
2023-05-23T15:27:32.500Z,20.25
2023-05-23T15:29:23.828Z,20.25
2023-05-23T15:31:22.282Z,19.74
2023-05-23T15:33:25.094Z,19.74
2023-05-23T15:35:22.177Z,19.74
2023-05-23T15:37:22.573Z,16.43
2023-05-23T15:39:24.017Z,16.43
2023-05-23T15:41:22.097Z,16.43
2023-05-23T15:43:22.331Z,14.85
2023-05-23T15:45:24.480Z,14.85
2023-05-23T15:47:23.324Z,14.85
2023-05-23T15:49:38.885Z,17.15
2023-05-23T15:51:22.744Z,17.15
2023-05-23T15:53:22.431Z,17.15
2023-05-23T15:55:22.252Z,18.8
2023-05-23T15:57:22.621Z,18.8
2023-05-23T15:59:21.810Z,18.8
2023-05-23T16:01:25.890Z,17.15
2023-05-23T16:03:22.552Z,17.15
2023-05-23T16:05:22.825Z,17.15
2023-05-23T16:07:22.271Z,14.57
2023-05-23T16:09:21.896Z,14.57
2023-05-23T16:11:22.588Z,14.57
2023-05-23T16:13:22.267Z,11.12
2023-05-23T16:15:22.478Z,11.12
2023-05-23T16:17:22.509Z,11.12
2023-05-23T16:19:23.013Z,9.16
2023-05-23T16:21:22.317Z,9.16
2023-05-23T16:23:22.007Z,9.16
2023-05-23T16:25:22.348Z,11.83
2023-05-23T16:27:21.739Z,11.83
2023-05-23T16:29:22.548Z,11.83
2023-05-23T16:31:24.259Z,9.28
2023-05-23T16:33:23.194Z,9.28
2023-05-23T16:35:28.978Z,9.28
2023-05-23T16:37:22.725Z,10.34
2023-05-23T16:39:22.147Z,10.34
2023-05-23T16:41:23.018Z,10.34
2023-05-23T16:43:22.469Z,12.84
2023-05-23T16:45:22.560Z,12.84
2023-05-23T16:47:22.856Z,12.84
2023-05-23T16:49:22.558Z,15.14
2023-05-23T16:51:23.139Z,15.14
2023-05-23T16:53:22.562Z,15.14
2023-05-23T16:55:22.290Z,11.83
2023-05-23T16:57:22.628Z,11.83
2023-05-23T16:59:22.443Z,11.83
2023-05-23T17:01:27.333Z,16.78
2023-05-23T17:03:23.268Z,16.78
2023-05-23T17:05:22.848Z,16.78
2023-05-23T17:07:22.478Z,21.93
2023-05-23T17:09:22.160Z,21.93
2023-05-23T17:11:23.010Z,21.93
2023-05-23T17:13:22.702Z,21.34
2023-05-23T17:15:22.259Z,21.34
2023-05-23T17:17:22.950Z,21.34
2023-05-23T17:19:22.586Z,18.8
2023-05-23T17:21:22.814Z,18.8
2023-05-23T17:23:22.326Z,18.8
2023-05-23T17:25:21.882Z,17.94
2023-05-23T17:27:22.576Z,17.94
2023-05-23T17:29:22.026Z,17.94
2023-05-23T17:31:22.831Z,15.44
2023-05-23T17:33:22.782Z,15.44
2023-05-23T17:35:22.612Z,15.44
2023-05-23T17:37:22.402Z,17.54
2023-05-23T17:39:22.610Z,17.54
2023-05-23T17:41:22.789Z,17.54
2023-05-23T17:43:21.926Z,17.15
2023-05-23T17:45:22.482Z,17.15
2023-05-23T17:47:22.311Z,17.15
2023-05-23T17:49:43.835Z,17.94
2023-05-23T17:51:22.188Z,17.94
2023-05-23T17:53:24.407Z,17.94
2023-05-23T17:55:22.569Z,18.8
2023-05-23T17:57:22.134Z,18.8
2023-05-23T17:59:22.556Z,18.8
2023-05-23T18:01:25.017Z,17.94
2023-05-23T18:03:22.241Z,17.94
2023-05-23T18:05:23.229Z,17.94
2023-05-23T18:07:22.031Z,20.78
2023-05-23T18:09:22.531Z,20.78
2023-05-23T18:11:22.249Z,20.78
2023-05-23T18:13:22.691Z,21.34
2023-05-23T18:15:22.245Z,21.34
2023-05-23T18:17:22.913Z,21.34
2023-05-23T18:23:22.281Z,19.26
2023-05-23T18:25:22.799Z,23.2
2023-05-23T18:27:22.396Z,23.2
2023-05-23T18:29:22.172Z,23.2
2023-05-23T18:31:22.621Z,18.8
2023-05-23T18:33:22.988Z,18.8
2023-05-23T18:35:27.141Z,18.8
2023-05-23T18:37:23.894Z,13.78
2023-05-23T18:39:23.568Z,13.78
2023-05-23T18:41:26.309Z,13.78
2023-05-23T18:43:22.245Z,8.93
2023-05-23T18:45:22.808Z,8.93
2023-05-23T18:47:22.732Z,8.93
2023-05-23T18:49:23.068Z,7.75
2023-05-23T18:51:22.567Z,7.75
2023-05-23T18:53:21.948Z,7.75
2023-05-23T18:55:22.367Z,6.31
2023-05-23T18:57:21.988Z,6.31
2023-05-23T18:59:22.208Z,6.31
2023-05-23T19:01:25.642Z,4.65
2023-05-23T19:03:23.307Z,4.65
2023-05-23T19:05:22.527Z,4.65
2023-05-23T19:07:21.970Z,4.8
2023-05-23T19:09:22.355Z,4.8
2023-05-23T19:11:22.486Z,4.8
2023-05-23T19:13:22.866Z,4.38
2023-05-23T19:15:22.395Z,4.38
2023-05-23T19:17:23.063Z,4.38
2023-05-23T19:19:23.203Z,4.41
2023-05-23T19:21:22.230Z,4.41
2023-05-23T19:23:37.565Z,4.41
2023-05-23T19:25:22.131Z,5.51
2023-05-23T19:27:22.685Z,5.51
2023-05-23T19:29:22.364Z,5.51
2023-05-23T19:31:22.380Z,6.19
2023-05-23T19:33:23.354Z,6.19
2023-05-23T19:35:23.967Z,6.19
2023-05-23T19:37:22.617Z,6.43
2023-05-23T19:39:22.514Z,6.43
2023-05-23T19:41:22.372Z,6.43
2023-05-23T19:43:22.723Z,5.91
2023-05-23T19:45:22.526Z,5.91
2023-05-23T19:47:22.155Z,5.91
2023-05-23T19:49:22.700Z,5.61
2023-05-23T19:51:29.645Z,5.61
2023-05-23T19:53:22.177Z,5.61
2023-05-23T19:55:26.367Z,5.46
2023-05-23T19:57:22.090Z,5.46
2023-05-23T19:59:22.715Z,5.46
2023-05-23T20:01:26.075Z,5.28
2023-05-23T20:03:22.356Z,5.28
2023-05-23T20:05:22.656Z,5.28
2023-05-23T20:07:21.998Z,4.91
2023-05-23T20:09:22.424Z,4.91
2023-05-23T20:11:22.822Z,4.91
2023-05-23T20:13:22.334Z,4.87
2023-05-23T20:15:38.158Z,4.87
2023-05-23T20:17:22.688Z,4.87
2023-05-23T20:19:22.387Z,5.07
2023-05-23T20:21:22.220Z,5.07
2023-05-23T20:23:22.831Z,5.07
2023-05-23T20:25:22.609Z,5.42
2023-05-23T20:27:21.875Z,5.42
2023-05-23T20:29:22.511Z,5.42
2023-05-23T20:31:22.492Z,5.51
2023-05-23T20:33:26.264Z,5.51
2023-05-23T20:35:22.203Z,5.51
2023-05-23T20:37:22.822Z,5.66
2023-05-23T20:39:22.389Z,5.66
2023-05-23T20:41:25.171Z,5.66
2023-05-23T20:43:22.354Z,5.66
2023-05-23T20:45:22.061Z,5.66
2023-05-23T20:47:24.995Z,5.66
2023-05-23T20:49:22.635Z,5.46
2023-05-23T20:51:22.675Z,5.46
2023-05-23T20:53:25.331Z,5.46
2023-05-23T20:55:22.819Z,5.2
2023-05-23T20:57:22.081Z,5.2
2023-05-23T20:59:22.483Z,5.2
2023-05-23T21:01:25.730Z,4.95
2023-05-23T21:03:23.303Z,4.95
2023-05-23T21:05:22.452Z,4.95
2023-05-23T21:07:22.876Z,4.69
2023-05-23T21:09:22.117Z,4.69
2023-05-23T21:11:27.773Z,4.69
2023-05-23T21:13:22.669Z,4.51
2023-05-23T21:15:22.011Z,4.51
2023-05-23T21:17:23.106Z,4.51
2023-05-23T21:19:22.470Z,4.48
2023-05-23T21:21:22.836Z,4.48
2023-05-23T21:23:22.413Z,4.48
2023-05-23T21:25:22.865Z,4.29
2023-05-23T21:27:22.646Z,4.29
2023-05-23T21:29:24.126Z,4.29
2023-05-23T21:31:37.126Z,4.14
2023-05-23T21:33:22.537Z,4.14
2023-05-23T21:35:42.747Z,4.14
2023-05-23T21:37:22.728Z,4
2023-05-23T21:39:22.307Z,4
2023-05-23T21:41:22.125Z,4
2023-05-23T21:43:22.626Z,3.84
2023-05-23T21:45:24.853Z,3.84
2023-05-23T21:47:23.169Z,3.84
2023-05-23T21:49:22.127Z,3.66
2023-05-23T21:51:22.950Z,3.66
2023-05-23T21:53:22.515Z,3.66
2023-05-23T21:55:22.074Z,3.52
2023-05-23T21:57:22.442Z,3.52
2023-05-23T21:59:21.934Z,3.52
2023-05-23T22:01:25.097Z,3.52
2023-05-23T22:03:23.099Z,3.52
2023-05-23T22:05:22.137Z,3.52
2023-05-23T22:07:22.429Z,3.41
2023-05-23T22:09:22.014Z,3.41
2023-05-23T22:11:22.942Z,3.41
2023-05-23T22:13:22.765Z,3.29
2023-05-23T22:15:22.028Z,3.29
2023-05-23T22:17:23.141Z,3.29
2023-05-23T22:19:26.874Z,3.15
2023-05-23T22:21:22.122Z,3.15
2023-05-23T22:23:24.579Z,3.15
2023-05-23T22:25:21.874Z,3.01
2023-05-23T22:27:22.624Z,3.01
2023-05-23T22:29:22.405Z,3.01
2023-05-23T22:31:24.898Z,2.91
2023-05-23T22:33:23.088Z,2.91
2023-05-23T22:35:22.376Z,2.91
2023-05-23T22:37:23.505Z,2.86
2023-05-23T22:39:22.453Z,2.86
2023-05-23T22:41:22.365Z,2.86
2023-05-23T22:43:22.978Z,2.81
2023-05-23T22:45:22.323Z,2.81
2023-05-23T22:47:23.137Z,2.81
2023-05-23T22:49:22.230Z,2.8
2023-05-23T22:51:22.551Z,2.8
2023-05-23T22:53:22.793Z,2.8
2023-05-23T22:55:22.450Z,2.77
2023-05-23T22:57:21.901Z,2.77
2023-05-23T22:59:22.841Z,2.77
2023-05-23T23:01:30.221Z,2.77
2023-05-23T23:03:23.674Z,2.77
2023-05-23T23:05:22.075Z,2.77
2023-05-23T23:07:22.532Z,2.73
2023-05-23T23:09:22.196Z,2.73
2023-05-23T23:11:22.839Z,2.73
2023-05-23T23:13:22.435Z,2.73
2023-05-23T23:15:24.041Z,2.73
2023-05-23T23:17:22.938Z,2.73
2023-05-23T23:19:22.563Z,2.73
2023-05-23T23:21:23.469Z,2.73
2023-05-23T23:23:22.200Z,2.73
2023-05-23T23:25:21.913Z,2.73
2023-05-23T23:27:22.536Z,2.73
2023-05-23T23:29:21.943Z,2.73
2023-05-23T23:31:23.005Z,2.75
2023-05-23T23:33:22.470Z,2.75
2023-05-23T23:35:22.730Z,2.75
2023-05-23T23:37:22.308Z,2.73
2023-05-23T23:39:22.780Z,2.73
2023-05-23T23:41:22.284Z,2.73
2023-05-23T23:43:22.714Z,2.69
2023-05-23T23:45:21.965Z,2.69
2023-05-23T23:47:23.177Z,2.69
2023-05-23T23:49:22.376Z,2.65
2023-05-23T23:51:21.994Z,2.65
2023-05-23T23:53:22.453Z,2.65
2023-05-23T23:55:22.092Z,2.6
2023-05-23T23:57:22.742Z,2.6
2023-05-23T23:59:22.209Z,2.6
